Time;durP1;ratioP1;P1;durP2;ratioP2;P2;SDS_P1;SDS_P2;PMS_P1;PMS_P2;Temp;Humidity;BMP_temperature;BMP_pressure;BME280_temperature;BME280_humidity;BME280_pressure;Samples;Min_cycle;Max_cycle;Signal;HPM_P1;HPM_P2
2021/01/24 00:02:23;;;;;;;29.97;14.03;;;;;;;0.50;82.24;99164.84;5030830;28;20709;-67
2021/01/24 00:04:52;;;;;;;26.00;14.15;;;;;;;0.56;82.22;99168.72;5031540;28;20134;-67
2021/01/24 00:07:18;;;;;;;27.43;13.40;;;;;;;0.54;82.04;99161.00;5030468;28;20482;-67
2021/01/24 00:09:43;;;;;;;31.47;13.50;;;;;;;0.50;82.19;99158.78;5030613;28;20475;-67
2021/01/24 00:12:08;;;;;;;25.53;12.73;;;;;;;0.44;82.18;99149.63;5014006;28;20455;-67
2021/01/24 00:14:34;;;;;;;30.92;14.30;;;;;;;0.31;82.01;99157.78;5030611;28;20041;-67
2021/01/24 00:16:59;;;;;;;25.23;13.13;;;;;;;0.23;82.70;99157.63;5030264;28;20034;-67
2021/01/24 00:19:25;;;;;;;28.87;12.77;;;;;;;0.17;82.58;99150.31;5030559;28;20079;-67
2021/01/24 00:21:50;;;;;;;27.48;14.35;;;;;;;0.09;82.63;99150.13;5031468;28;20037;-67
2021/01/24 00:24:16;;;;;;;32.58;14.55;;;;;;;-0.01;82.97;99156.19;5014012;28;20118;-67
2021/01/24 00:26:41;;;;;;;31.40;14.07;;;;;;;-0.12;83.36;99158.91;5031049;28;20037;-67
2021/01/24 00:29:07;;;;;;;31.52;13.95;;;;;;;-0.18;83.83;99159.44;5031298;28;20029;-67
2021/01/24 00:31:32;;;;;;;27.08;13.68;;;;;;;-0.27;83.91;99165.50;5031257;28;20060;-67
2021/01/24 00:33:57;;;;;;;23.80;13.13;;;;;;;-0.31;83.75;99172.78;5030419;28;20120;-67
2021/01/24 00:36:23;;;;;;;30.07;13.90;;;;;;;-0.50;83.76;99155.16;5030234;28;20323;-67
2021/01/24 00:38:48;;;;;;;32.07;15.17;;;;;;;-0.56;84.01;99174.06;5031327;28;20091;-67
2021/01/24 00:41:14;;;;;;;26.63;14.43;;;;;;;-0.64;84.72;99171.25;5030171;28;20083;-67
2021/01/24 00:43:40;;;;;;;28.25;13.88;;;;;;;-0.61;85.38;99175.38;5013838;28;20061;-67
2021/01/24 00:46:05;;;;;;;;;;;;;;;-0.62;85.29;99177.19;5030221;28;20049;-67
2021/01/24 00:48:34;;;;;;;33.05;14.05;;;;;;;-0.65;85.42;99167.78;5031098;28;19923;-67
2021/01/24 00:51:00;;;;;;;26.50;13.75;;;;;;;-0.77;85.09;99168.84;5030163;28;20037;-67
2021/01/24 00:53:26;;;;;;;29.02;14.82;;;;;;;-0.81;85.09;99172.66;5031124;28;20044;-67
2021/01/24 00:55:52;;;;;;;;;;;;;;;-0.82;85.35;99176.25;5030387;28;20030;-67
2021/01/24 00:58:17;;;;;;;34.80;15.77;;;;;;;-0.89;85.42;99170.69;5013491;28;19951;-67
2021/01/24 01:00:42;;;;;;;31.10;15.03;;;;;;;-0.93;85.50;99177.13;5030064;28;20095;-67
2021/01/24 01:03:08;;;;;;;31.63;15.50;;;;;;;-0.96;85.32;99181.78;5030989;28;20374;-67
2021/01/24 01:05:33;;;;;;;30.73;15.33;;;;;;;-1.02;85.36;99175.28;5030737;28;20064;-67
2021/01/24 01:07:58;;;;;;;27.93;15.73;;;;;;;-1.03;85.58;99178.00;5030816;28;20029;-67
2021/01/24 01:10:24;;;;;;;30.13;15.53;;;;;;;-1.12;85.59;99172.59;5030913;28;20029;-67
2021/01/24 01:12:49;;;;;;;28.63;15.00;;;;;;;-1.10;86.13;99178.53;5029934;28;20422;-67
2021/01/24 01:15:15;;;;;;;32.83;15.98;;;;;;;-1.20;85.56;99172.38;5013389;28;20131;-67
2021/01/24 01:17:41;;;;;;;26.23;14.67;;;;;;;-1.28;86.08;99169.56;5030695;28;20443;-67
2021/01/24 01:20:07;;;;;;;30.90;14.93;;;;;;;-1.33;86.05;99169.94;5013518;28;20280;-67
2021/01/24 01:22:32;;;;;;;32.78;16.90;;;;;;;-1.39;85.98;99175.66;5030867;28;20319;-67
2021/01/24 01:24:57;;;;;;;36.13;15.70;;;;;;;-1.41;86.43;99174.97;5032672;28;20065;-68
2021/01/24 01:27:23;;;;;;;35.50;16.43;;;;;;;-1.31;87.16;99178.50;5034448;28;20076;-67
2021/01/24 01:29:48;;;;;;;28.10;14.00;;;;;;;-1.36;86.91;99178.06;5033620;28;20037;-67
2021/01/24 01:32:13;;;;;;;30.10;15.03;;;;;;;-1.39;86.59;99183.53;5034592;28;20038;-67
2021/01/24 01:34:39;;;;;;;29.60;16.57;;;;;;;-1.44;86.44;99179.63;5033708;28;20091;-67
2021/01/24 01:37:04;;;;;;;38.27;16.63;;;;;;;-1.49;86.50;99178.22;5016732;28;20037;-67
2021/01/24 01:39:29;;;;;;;28.30;15.25;;;;;;;-1.51;86.56;99179.28;5033545;28;20026;-67
2021/01/24 01:41:55;;;;;;;28.07;14.17;;;;;;;-1.57;86.45;99179.78;5033423;28;20053;-68
2021/01/24 01:44:20;;;;;;;28.63;14.17;;;;;;;-1.68;86.17;99185.88;5033182;28;20045;-68
2021/01/24 01:46:47;;;;;;;30.47;15.10;;;;;;;-1.72;86.06;99187.91;5032994;28;20041;-68
2021/01/24 01:49:13;;;;;;;29.42;14.95;;;;;;;-1.74;86.32;99189.81;5034270;28;20034;-68
2021/01/24 01:51:38;;;;;;;28.97;15.10;;;;;;;-1.76;86.33;99191.72;5034347;28;20167;-67
2021/01/24 01:54:05;;;;;;;29.13;14.00;;;;;;;-1.79;86.43;99191.13;5034249;28;20477;-67
2021/01/24 01:56:30;;;;;;;30.45;15.07;;;;;;;-1.76;86.71;99202.16;5032935;28;20067;-67
2021/01/24 01:58:55;;;;;;;37.60;16.87;;;;;;;-1.74;86.71;99196.81;5033953;28;20470;-67
2021/01/24 02:01:29;;;;;;;36.07;16.43;;;;;;;-1.67;87.03;99192.75;5033149;28;20464;-67
2021/01/24 02:04:09;;;;;;;39.15;20.08;;;;;;;-1.64;87.62;99197.78;5034086;28;20478;-67
2021/01/24 02:06:42;;;;;;;35.08;15.45;;;;;;;-1.61;87.52;99197.53;5032722;28;20455;-68
2021/01/24 02:09:13;;;;;;;34.42;16.88;;;;;;;-1.62;87.15;99202.88;5032790;28;20041;-67
2021/01/24 02:12:13;;;;;;;30.48;15.52;;;;;;;-1.64;87.10;99194.31;5033001;28;20128;-67
2021/01/24 02:14:55;;;;;;;36.00;16.08;;;;;;;-1.65;87.11;99200.50;5032863;28;20447;-67
2021/01/24 02:17:21;;;;;;;31.83;15.93;;;;;;;-1.72;87.04;99193.13;5033471;28;20102;-67
2021/01/24 02:20:18;;;;;;;32.80;16.73;;;;;;;-1.72;87.20;99194.94;5032562;28;20057;-67
2021/01/24 02:22:45;;;;;;;34.70;18.50;;;;;;;-1.75;87.83;99193.38;5032752;28;20087;-67
2021/01/24 02:25:18;;;;;;;30.60;15.60;;;;;;;-1.73;87.72;99190.66;5032585;28;20061;-67
2021/01/24 02:27:59;;;;;;;34.28;16.27;;;;;;;-1.76;87.94;99178.63;5033289;28;20112;-67
2021/01/24 02:30:29;;;;;;;39.15;17.85;;;;;;;-1.74;88.25;99183.75;5032553;28;20033;-67
2021/01/24 02:33:08;;;;;;;34.45;18.48;;;;;;;-1.77;88.15;99184.00;5033529;28;20121;-67
2021/01/24 02:35:37;;;;;;;34.78;17.60;;;;;;;-1.79;88.21;99189.34;5014580;28;20029;-67
2021/01/24 02:38:05;;;;;;;42.45;19.40;;;;;;;-1.86;88.18;99177.72;5032331;28;20742;-67
2021/01/24 02:40:32;;;;;;;39.08;18.77;;;;;;;-1.86;88.35;99188.16;5033149;28;20037;-67
2021/01/24 02:43:01;;;;;;;34.17;17.25;;;;;;;-1.87;88.60;99183.91;5033195;28;20362;-67
2021/01/24 02:45:26;;;;;;;35.05;17.83;;;;;;;-1.86;88.37;99182.94;5033056;28;20034;-67
2021/01/24 02:47:53;;;;;;;43.25;20.08;;;;;;;-1.85;88.55;99182.00;5032984;28;20048;-67
2021/01/24 02:50:19;;;;;;;40.10;19.15;;;;;;;-1.86;88.33;99184.72;5033133;28;20055;-67
2021/01/24 02:52:46;;;;;;;29.30;14.55;;;;;;;-1.90;88.43;99181.50;5032213;28;20503;-67
2021/01/24 02:55:14;;;;;;;36.60;16.17;;;;;;;-1.91;88.31;99187.72;5031924;28;20037;-67
2021/01/24 02:57:40;;;;;;;39.20;19.15;;;;;;;-1.88;88.42;99190.06;5032740;28;20056;-67
2021/01/24 03:00:06;;;;;;;;;;;;;;;-1.90;88.21;99189.34;5033392;28;20063;-67
2021/01/24 03:02:31;;;;;;;35.17;17.23;;;;;;;-1.96;88.15;99195.09;5032961;28;20331;-67
2021/01/24 03:04:56;;;;;;;37.67;17.27;;;;;;;-2.02;87.96;99192.94;5031928;28;20037;-67
2021/01/24 03:07:22;;;;;;;33.20;15.87;;;;;;;-2.08;87.84;99191.66;5032549;28;20413;-67
2021/01/24 03:09:47;;;;;;;30.08;16.95;;;;;;;-2.09;87.89;99191.75;5031552;28;20375;-67
2021/01/24 03:12:15;;;;;;;40.45;20.48;;;;;;;-2.17;87.86;99200.22;5032634;28;20071;-67
2021/01/24 03:14:41;;;;;;;36.60;17.38;;;;;;;-2.23;87.80;99198.06;5015374;28;20069;-67
2021/01/24 03:17:08;;;;;;;35.05;17.52;;;;;;;-2.23;87.84;99193.66;5032456;28;20393;-67
2021/01/24 03:19:35;;;;;;;35.35;18.08;;;;;;;-2.22;88.01;99192.72;5032510;28;20033;-67
2021/01/24 03:22:02;;;;;;;38.35;17.98;;;;;;;-2.26;88.01;99198.31;5015074;28;20037;-67
2021/01/24 03:24:28;;;;;;;43.55;21.10;;;;;;;-2.26;88.90;99201.75;5031417;28;20075;-67
2021/01/24 03:26:54;;;;;;;39.97;18.00;;;;;;;-2.23;88.94;99193.66;5031154;28;20045;-67
2021/01/24 03:29:20;;;;;;;38.50;19.02;;;;;;;-2.23;88.79;99196.28;5014997;28;20045;-67
2021/01/24 03:31:46;;;;;;;38.15;17.27;;;;;;;-2.24;88.64;99197.25;5032329;28;20120;-67
2021/01/24 03:34:18;;;;;;;41.92;19.80;;;;;;;-2.25;88.71;99200.78;5031457;28;20044;-67
2021/01/24 03:36:49;;;;;;;45.85;22.65;;;;;;;-2.22;89.21;99195.34;5031003;28;20042;-67
2021/01/24 03:39:14;;;;;;;56.30;22.92;;;;;;;-2.27;89.28;99201.84;5032273;28;20045;-68
2021/01/24 03:41:40;;;;;;;49.78;21.33;;;;;;;-2.24;89.60;99207.69;5014721;28;20048;-67
2021/01/24 03:44:06;;;;;;;46.80;20.60;;;;;;;-2.33;89.17;99204.00;5032144;28;20048;-68
2021/01/24 03:46:32;;;;;;;;;;;;;;;-2.33;89.21;99197.94;5031722;28;20038;-67
2021/01/24 03:48:57;;;;;;;41.10;18.00;;;;;;;-2.28;89.33;99194.97;5031918;28;19913;-67
2021/01/24 03:51:22;;;;;;;50.83;20.50;;;;;;;-2.30;89.21;99192.47;5031823;28;20076;-67
2021/01/24 03:53:47;;;;;;;48.27;22.07;;;;;;;-2.25;89.75;99207.81;5031946;28;20075;-67
2021/01/24 03:56:13;;;;;;;48.33;22.27;;;;;;;-2.31;90.25;99206.50;5031552;28;20060;-67
2021/01/24 03:58:40;;;;;;;54.30;22.63;;;;;;;-2.17;90.80;99206.28;5031931;28;20308;-68
2021/01/24 04:01:05;;;;;;;55.95;25.27;;;;;;;-2.16;90.97;99202.69;5030872;28;20041;-68
2021/01/24 04:03:31;;;;;;;46.37;21.27;;;;;;;-2.16;90.23;99205.31;5030923;28;20033;-68
2021/01/24 04:05:56;;;;;;;50.53;22.53;;;;;;;-2.17;90.61;99200.22;5031353;28;20046;-68
2021/01/24 04:08:21;;;;;;;52.47;23.20;;;;;;;-2.26;90.39;99196.53;5014074;28;20098;-68
2021/01/24 04:10:47;;;;;;;45.03;22.67;;;;;;;-2.22;90.63;99195.34;5030857;28;20409;-68
2021/01/24 04:13:12;;;;;;;50.95;20.70;;;;;;;-2.19;90.63;99200.31;5030681;28;20340;-68
2021/01/24 04:15:37;;;;;;;54.70;21.77;;;;;;;-2.14;90.71;99203.41;5030542;28;20034;-68
2021/01/24 04:18:03;;;;;;;40.10;19.10;;;;;;;-2.15;90.60;99201.75;5030529;28;20052;-68
2021/01/24 04:20:28;;;;;;;45.87;21.87;;;;;;;-2.14;90.62;99200.78;5031359;28;20037;-68
2021/01/24 04:22:53;;;;;;;48.50;21.50;;;;;;;-2.08;90.57;99207.34;5030620;28;20292;-68
2021/01/24 04:25:19;;;;;;;49.07;23.33;;;;;;;-2.07;90.56;99197.72;5030312;28;20043;-68
2021/01/24 04:27:45;;;;;;;43.63;20.67;;;;;;;-2.14;90.05;99208.63;5031169;28;20045;-68
2021/01/24 04:30:10;;;;;;;49.33;22.05;;;;;;;-2.19;90.50;99204.72;5030312;28;20331;-68
2021/01/24 04:32:36;;;;;;;47.67;22.88;;;;;;;-2.17;90.42;99203.66;5031426;28;20083;-68
2021/01/24 04:35:02;;;;;;;47.42;20.85;;;;;;;-2.20;90.32;99200.44;5013834;28;20041;-68
2021/01/24 04:37:27;;;;;;;45.72;20.17;;;;;;;-2.24;90.00;99204.25;5030036;28;20044;-68
2021/01/24 04:39:53;;;;;;;42.13;21.60;;;;;;;-2.23;90.30;99198.88;5030358;28;20037;-68
2021/01/24 04:42:18;;;;;;;44.17;20.10;;;;;;;-2.16;90.29;99197.47;5031220;28;20457;-68
2021/01/24 04:44:44;;;;;;;44.65;21.52;;;;;;;-2.13;90.23;99199.84;5031255;28;20076;-68
2021/01/24 04:47:10;;;;;;;;;;;;;;;-2.08;90.46;99193.41;5031360;28;20463;-67
2021/01/24 04:49:36;;;;;;;52.40;23.13;;;;;;;-1.99;90.78;99200.53;5030130;28;19917;-68
2021/01/24 04:52:02;;;;;;;58.88;27.20;;;;;;;-1.95;90.98;99196.75;5030143;28;20041;-67
2021/01/24 04:54:29;;;;;;;47.17;20.77;;;;;;;-1.99;90.63;99193.56;5031014;28;20065;-68
2021/01/24 04:56:54;;;;;;;41.63;20.08;;;;;;;-2.13;90.25;99183.34;5013332;28;20041;-68
2021/01/24 04:59:20;;;;;;;47.57;23.70;;;;;;;-2.18;90.20;99191.53;5015553;28;20040;-67
2021/01/24 05:01:46;;;;;;;51.08;23.35;;;;;;;-2.17;90.28;99185.34;5034237;28;20033;-68
2021/01/24 05:04:12;;;;;;;44.70;20.55;;;;;;;-2.18;90.37;99180.22;5035181;28;20399;-68
2021/01/24 05:06:37;;;;;;;52.97;23.27;;;;;;;-2.14;90.31;99184.28;5034589;28;20037;-68
2021/01/24 05:09:02;;;;;;;46.27;21.10;;;;;;;-2.15;90.28;99178.22;5035035;28;20049;-68
2021/01/24 05:11:28;;;;;;;44.28;21.65;;;;;;;-2.15;90.21;99186.06;5034029;28;20044;-68
2021/01/24 05:14:11;;;;;;;44.97;21.83;;;;;;;-2.13;90.49;99183.34;5017608;28;20756;-68
2021/01/24 05:16:37;;;;;;;44.50;22.05;;;;;;;-2.13;90.17;99180.72;5034541;28;20030;-68
2021/01/24 05:19:02;;;;;;;64.27;25.53;;;;;;;-2.17;90.02;99181.91;5033877;28;20044;-68
2021/01/24 05:21:30;;;;;;;53.37;23.77;;;;;;;-2.16;90.22;99178.31;5034754;28;20295;-68
2021/01/24 05:23:56;;;;;;;58.72;22.55;;;;;;;-2.15;90.17;99180.84;5033694;28;20040;-68
2021/01/24 05:26:21;;;;;;;54.17;25.58;;;;;;;-2.14;90.30;99181.66;5034364;28;20041;-68
2021/01/24 05:28:48;;;;;;;48.80;21.98;;;;;;;-2.08;90.53;99183.81;5034703;28;20048;-68
2021/01/24 05:31:14;;;;;;;51.22;22.65;;;;;;;-2.04;90.38;99187.00;5034475;28;20048;-68
2021/01/24 05:33:46;;;;;;;51.10;23.75;;;;;;;-2.01;90.41;99186.78;5034565;28;20041;-68
2021/01/24 05:36:11;;;;;;;48.38;22.65;;;;;;;-2.00;90.83;99183.19;5033217;28;20037;-68
2021/01/24 05:38:37;;;;;;;45.47;23.50;;;;;;;-1.95;90.36;99191.50;5033556;28;20516;-68
2021/01/24 05:41:10;;;;;;;47.13;23.70;;;;;;;-1.90;90.33;99189.34;5033491;28;20128;-68
2021/01/24 05:43:38;;;;;;;61.75;25.35;;;;;;;-1.87;90.32;99193.50;5033393;28;20382;-68
2021/01/24 05:46:05;;;;;;;55.20;23.33;;;;;;;-1.84;90.40;99196.72;5032997;28;20123;-68
2021/01/24 05:48:33;;;;;;;50.92;24.52;;;;;;;-1.86;90.40;99198.63;5034225;28;20033;-68
2021/01/24 05:51:06;;;;;;;58.10;26.23;;;;;;;-1.89;90.21;99201.50;5034263;28;20033;-68
2021/01/24 05:53:40;;;;;;;56.42;25.80;;;;;;;-1.89;90.27;99211.13;5016801;28;20033;-68
2021/01/24 05:56:10;;;;;;;50.75;24.13;;;;;;;-1.91;90.50;99214.69;5033873;28;20041;-68
2021/01/24 05:58:36;;;;;;;60.08;26.67;;;;;;;-1.86;90.64;99209.09;5033061;28;20116;-68
2021/01/24 06:01:01;;;;;;;50.70;25.13;;;;;;;-1.83;90.65;99205.41;5034091;28;20416;-68
2021/01/24 06:03:27;;;;;;;60.50;25.38;;;;;;;-1.74;90.82;99209.91;5016609;28;20040;-68
2021/01/24 06:05:52;;;;;;;49.95;23.08;;;;;;;-1.72;90.63;99202.78;5032773;28;20506;-68
2021/01/24 06:08:17;;;;;;;54.63;24.03;;;;;;;-1.72;90.63;99219.31;5032745;28;20037;-68
2021/01/24 06:10:43;;;;;;;53.07;24.70;;;;;;;-1.68;90.74;99222.53;5033588;28;20103;-68
2021/01/24 06:13:14;;;;;;;55.17;24.50;;;;;;;-1.63;90.69;99222.16;5032769;28;20037;-68
2021/01/24 06:15:42;;;;;;;56.10;25.10;;;;;;;-1.58;90.64;99220.00;5033636;28;20067;-68
2021/01/24 06:18:14;;;;;;;55.35;25.08;;;;;;;-1.53;90.63;99223.06;5016304;28;20044;-68
2021/01/24 06:20:44;;;;;;;54.35;26.45;;;;;;;-1.56;90.79;99221.53;5032831;28;20037;-68
2021/01/24 06:23:25;;;;;;;65.65;27.58;;;;;;;-1.54;90.80;99234.50;5032623;28;20041;-67
2021/01/24 06:25:53;;;;;;;56.05;26.40;;;;;;;-1.52;90.86;99225.59;5032475;28;20038;-68
2021/01/24 06:28:26;;;;;;;57.25;24.40;;;;;;;-1.50;91.00;99228.06;5033526;28;20422;-68
2021/01/24 06:30:52;;;;;;;57.13;25.15;;;;;;;-1.48;90.92;99231.38;5032637;28;20473;-68
2021/01/24 06:33:19;;;;;;;64.78;25.20;;;;;;;-1.49;90.82;99220.09;5033441;28;20034;-68
2021/01/24 06:35:58;;;;;;;59.15;26.45;;;;;;;-1.47;90.60;99235.69;5032316;28;20455;-68
2021/01/24 06:38:36;;;;;;;60.90;26.13;;;;;;;-1.45;90.63;99232.91;5032309;28;20448;-68
2021/01/24 06:41:04;;;;;;;54.38;25.45;;;;;;;-1.51;90.60;99236.88;5033394;28;20040;-68
2021/01/24 06:43:40;;;;;;;52.15;24.35;;;;;;;-1.44;90.74;99232.81;5032357;28;20478;-68
2021/01/24 06:46:29;;;;;;;46.13;22.67;;;;;;;-1.46;90.77;99239.13;5033028;28;20041;-68
2021/01/24 06:48:55;;;;;;;52.15;23.95;;;;;;;-1.45;90.58;99233.78;5033087;28;20374;-68
2021/01/24 06:51:41;;;;;;;58.45;27.77;;;;;;;-1.43;90.59;99233.63;5032184;28;20120;-68
2021/01/24 06:54:28;;;;;;;50.97;23.45;;;;;;;-1.41;90.61;99242.19;5015709;28;20136;-68
2021/01/24 06:57:06;;;;;;;45.72;21.52;;;;;;;-1.46;90.31;99244.38;5032666;28;20051;-68
2021/01/24 06:59:31;;;;;;;58.20;24.38;;;;;;;-1.47;90.42;99248.78;5033074;28;20037;-68
2021/01/24 07:02:24;;;;;;;55.63;23.57;;;;;;;-1.48;90.31;99252.31;5032914;28;20044;-68
2021/01/24 07:05:11;;;;;;;52.90;23.90;;;;;;;-1.46;90.40;99253.03;5032917;28;20476;-68
2021/01/24 07:07:38;;;;;;;51.15;23.55;;;;;;;-1.41;90.39;99257.91;5031427;28;20041;-68
2021/01/24 07:10:07;;;;;;;46.08;24.08;;;;;;;-1.42;90.26;99257.09;5032727;28;20048;-68
2021/01/24 07:12:41;;;;;;;45.60;22.75;;;;;;;-1.41;90.47;99255.28;5031782;28;20029;-68
2021/01/24 07:15:18;;;;;;;58.47;27.15;;;;;;;-1.41;90.40;99260.53;5032712;28;20079;-68
2021/01/24 07:17:53;;;;;;;46.53;23.17;;;;;;;-1.43;90.34;99263.25;5031375;28;20040;-68
2021/01/24 07:20:19;;;;;;;51.63;23.70;;;;;;;-1.43;90.45;99259.81;5031495;28;20407;-68
2021/01/24 07:22:46;;;;;;;51.30;24.60;;;;;;;-1.44;90.38;99264.22;5031862;28;20033;-68
2021/01/24 07:25:11;;;;;;;55.40;24.45;;;;;;;-1.40;90.46;99265.66;5031479;28;20078;-68
2021/01/24 07:27:37;;;;;;;52.75;25.23;;;;;;;-1.43;90.32;99267.66;5031262;28;20117;-68
2021/01/24 07:30:05;;;;;;;53.92;24.40;;;;;;;-1.46;90.15;99265.31;5031416;28;20037;-68
2021/01/24 07:32:30;;;;;;;51.92;24.30;;;;;;;-1.49;90.18;99261.16;5032322;28;20413;-68
2021/01/24 07:34:55;;;;;;;50.23;22.63;;;;;;;-1.51;89.99;99276.13;5032222;28;20041;-68
2021/01/24 07:37:22;;;;;;;55.57;25.50;;;;;;;-1.53;89.98;99278.88;5031774;28;20025;-68
2021/01/24 07:39:50;;;;;;;53.08;24.63;;;;;;;-1.56;89.94;99278.28;5032037;28;20079;-68
2021/01/24 07:42:16;;;;;;;55.90;24.10;;;;;;;-1.56;90.03;99281.72;5032105;28;20045;-68
2021/01/24 07:44:43;;;;;;;64.15;27.30;;;;;;;-1.59;90.18;99289.84;5031821;28;20033;-68
2021/01/24 07:47:09;;;;;;;65.82;28.05;;;;;;;-1.63;90.34;99290.19;5031788;28;20033;-68
2021/01/24 07:49:35;;;;;;;;;;;;;;;-1.56;90.54;99294.00;5031385;28;20041;-68
2021/01/24 07:52:03;;;;;;;60.70;26.20;;;;;;;-1.57;90.60;99289.69;5014568;28;19913;-68
2021/01/24 07:54:28;;;;;;;56.58;25.63;;;;;;;-1.53;90.71;99293.75;5031069;28;20037;-68
2021/01/24 07:56:53;;;;;;;61.60;25.50;;;;;;;-1.50;90.71;99290.88;5014283;28;20505;-68
2021/01/24 07:59:20;;;;;;;56.47;25.20;;;;;;;-1.49;90.67;99295.19;5031664;28;20426;-68
2021/01/24 08:01:45;;;;;;;55.85;24.60;;;;;;;-1.43;90.90;99294.66;5031843;28;20037;-68
2021/01/24 08:04:11;;;;;;;64.77;27.97;;;;;;;-1.25;90.82;99299.41;5030724;28;20115;-68
2021/01/24 08:06:37;;;;;;;63.58;28.48;;;;;;;-1.12;91.30;99295.69;5030220;28;20041;-68
2021/01/24 08:09:07;;;;;;;68.80;29.45;;;;;;;-1.07;90.90;99303.19;5031556;28;20120;-68
2021/01/24 08:11:34;;;;;;;57.20;26.35;;;;;;;-1.28;90.37;99303.94;5030537;28;20494;-68
2021/01/24 08:14:00;;;;;;;66.18;28.30;;;;;;;-1.34;90.30;99308.81;5031414;28;20033;-68
2021/01/24 08:16:34;;;;;;;66.63;28.88;;;;;;;-1.40;90.58;99301.47;5031278;28;20379;-68
2021/01/24 08:19:02;;;;;;;62.30;27.02;;;;;;;-1.28;90.88;99305.72;5030625;28;20437;-68
2021/01/24 08:21:28;;;;;;;62.70;27.33;;;;;;;-1.18;90.88;99301.41;5014011;28;20038;-68
2021/01/24 08:23:54;;;;;;;68.63;29.13;;;;;;;-1.10;90.74;99312.13;5030615;28;20045;-68
2021/01/24 08:26:20;;;;;;;59.65;29.38;;;;;;;-1.07;90.53;99305.81;5013327;28;20041;-68
2021/01/24 08:28:48;;;;;;;55.55;27.30;;;;;;;-1.01;90.60;99305.28;5030388;28;20033;-68
2021/01/24 08:31:18;;;;;;;57.75;26.23;;;;;;;-0.91;90.54;99308.03;5029196;28;20478;-68
2021/01/24 08:33:44;;;;;;;60.50;25.90;;;;;;;-0.90;90.41;99315.75;5031219;28;20040;-68
2021/01/24 08:36:13;;;;;;;59.33;26.73;;;;;;;-0.95;90.26;99322.31;5030320;28;20037;-68
2021/01/24 08:38:39;;;;;;;60.95;28.70;;;;;;;-1.00;90.44;99320.06;5031312;28;20117;-68
2021/01/24 08:41:04;;;;;;;61.05;27.27;;;;;;;-0.91;90.64;99323.75;5031212;28;20127;-68
2021/01/24 08:43:29;;;;;;;67.33;27.27;;;;;;;-0.76;90.90;99319.88;5031228;28;20033;-68
2021/01/24 08:46:18;;;;;;;59.67;27.60;;;;;;;-0.64;90.60;99336.38;5030001;28;20053;-68
2021/01/24 08:48:44;;;;;;;58.55;25.92;;;;;;;-0.54;90.58;99339.06;5031207;28;20337;-68
2021/01/24 08:51:09;;;;;;;59.43;25.77;;;;;;;-0.57;90.30;99337.53;5031151;28;20048;-68
2021/01/24 08:53:34;;;;;;;64.93;26.30;;;;;;;-0.46;90.22;99337.50;5013766;28;20045;-68
2021/01/24 08:56:00;;;;;;;60.65;29.38;;;;;;;-0.49;89.90;99339.56;5031048;28;20057;-68
2021/01/24 08:58:25;;;;;;;56.83;26.10;;;;;;;-0.50;89.99;99343.94;5030345;28;20438;-68
2021/01/24 09:01:03;;;;;;;56.90;25.00;;;;;;;-0.37;90.10;99340.34;5031123;28;20442;-68
2021/01/24 09:03:28;;;;;;;55.38;25.50;;;;;;;-0.26;90.05;99350.75;5013639;28;20071;-65
2021/01/24 09:05:53;;;;;;;55.50;26.30;;;;;;;-0.14;89.97;99344.50;5029487;28;20052;-65
2021/01/24 09:08:28;;;;;;;58.57;27.03;;;;;;;-0.05;89.81;99343.72;5030292;28;20053;-66
2021/01/24 09:10:55;;;;;;;54.40;24.85;;;;;;;0.04;89.45;99336.84;5030829;28;20037;-65
2021/01/24 09:13:20;;;;;;;52.72;22.67;;;;;;;0.08;89.37;99340.06;5030967;28;20132;-65
2021/01/24 09:15:45;;;;;;;55.70;26.27;;;;;;;0.15;89.00;99344.66;5029917;28;20283;-65
2021/01/24 09:18:11;;;;;;;50.53;25.27;;;;;;;0.27;88.83;99352.44;5030917;28;20144;-65
2021/01/24 09:20:36;;;;;;;56.03;24.30;;;;;;;0.28;88.57;99346.22;5029791;28;20060;-65
2021/01/24 09:23:01;;;;;;;44.30;22.87;;;;;;;0.39;88.47;99348.78;5030050;28;20142;-65
2021/01/24 09:25:27;;;;;;;52.37;22.47;;;;;;;0.43;88.01;99357.22;5030824;28;20431;-65
2021/01/24 09:27:52;;;;;;;50.80;23.43;;;;;;;0.48;88.02;99350.59;5028590;28;20095;-65
2021/01/24 09:30:18;;;;;;;52.27;25.97;;;;;;;0.60;88.11;99357.41;5029488;28;20037;-65
2021/01/24 09:32:44;;;;;;;51.55;24.45;;;;;;;0.62;87.69;99352.03;5029891;28;20041;-65
2021/01/24 09:35:09;;;;;;;44.80;24.08;;;;;;;0.66;87.14;99355.25;5029178;28;20042;-65
2021/01/24 09:37:35;;;;;;;50.25;25.00;;;;;;;0.57;86.62;99349.00;5030338;28;20064;-65
2021/01/24 09:40:01;;;;;;;60.97;24.90;;;;;;;0.35;86.94;99365.75;5029748;28;20041;-65
2021/01/24 09:42:26;;;;;;;52.17;26.15;;;;;;;0.32;87.60;99369.47;5013100;28;20415;-65
2021/01/24 09:44:52;;;;;;;53.00;25.13;;;;;;;0.45;87.90;99366.63;5030903;28;20033;-65
2021/01/24 09:47:17;;;;;;;55.47;26.57;;;;;;;0.19;88.07;99363.59;5033453;28;20287;-74
2021/01/24 09:49:43;;;;;;;54.33;25.75;;;;;;;-0.04;88.54;99366.38;5032520;28;20030;-76
2021/01/24 09:52:08;;;;;;;54.97;27.30;;;;;;;-0.12;89.21;99367.97;5032730;28;20075;-76
2021/01/24 09:54:33;;;;;;;59.57;29.17;;;;;;;-0.14;89.52;99359.38;5031647;28;20351;-76
2021/01/24 09:56:59;;;;;;;64.93;28.13;;;;;;;-0.05;89.60;99366.47;5032406;28;20456;-76
2021/01/24 09:59:24;;;;;;;65.13;28.30;;;;;;;0.24;89.63;99369.28;5014842;28;20061;-76
2021/01/24 10:01:50;;;;;;;60.23;28.83;;;;;;;0.37;89.20;99363.81;5031624;28;20421;-76
2021/01/24 10:04:16;;;;;;;58.28;28.67;;;;;;;0.45;88.71;99378.94;5032271;28;20045;-76
2021/01/24 10:06:41;;;;;;;57.53;28.20;;;;;;;0.48;88.10;99370.78;5033736;28;20044;-76
2021/01/24 10:09:06;;;;;;;56.63;27.70;;;;;;;0.37;87.68;99371.69;5016317;28;20073;-76
2021/01/24 10:11:32;;;;;;;53.60;23.07;;;;;;;0.39;87.61;99378.47;5016542;28;20037;-76
2021/01/24 10:13:58;;;;;;;52.75;25.15;;;;;;;0.40;87.10;99374.06;5033752;28;20033;-76
2021/01/24 10:16:24;;;;;;;54.77;24.13;;;;;;;0.29;87.36;99382.03;5033508;28;20079;-77
2021/01/24 10:18:49;;;;;;;52.38;24.80;;;;;;;0.46;87.50;99384.03;5033666;28;20654;-76
2021/01/24 10:21:14;;;;;;;49.65;23.77;;;;;;;0.64;87.06;99384.25;5033653;28;20471;-76
2021/01/24 10:23:40;;;;;;;56.47;22.00;;;;;;;0.46;86.28;99383.22;5033839;28;20044;-76
2021/01/24 10:26:06;;;;;;;44.95;22.88;;;;;;;0.59;86.92;99386.47;5033140;28;20030;-77
2021/01/24 10:28:32;;;;;;;49.58;24.20;;;;;;;0.60;86.52;99374.97;5032697;28;20040;-77
2021/01/24 10:30:57;;;;;;;48.60;22.35;;;;;;;0.50;86.57;99377.56;5033579;28;20340;-77
2021/01/24 10:33:23;;;;;;;48.20;23.73;;;;;;;0.66;86.68;99384.97;5032656;28;20050;-77
2021/01/24 10:35:49;;;;;;;42.53;21.90;;;;;;;0.62;85.88;99384.38;5033276;28;20111;-77
2021/01/24 10:38:15;;;;;;;53.53;23.85;;;;;;;0.65;86.49;99383.28;5033440;28;20451;-76
2021/01/24 10:40:41;;;;;;;50.90;23.00;;;;;;;0.62;86.43;99388.81;5032442;28;20128;-77
2021/01/24 10:43:08;;;;;;;41.83;21.67;;;;;;;0.79;86.13;99387.34;5033469;28;20112;-76
2021/01/24 10:45:34;;;;;;;42.08;22.02;;;;;;;0.94;85.79;99380.78;5032100;28;20038;-76
2021/01/24 10:48:00;;;;;;;40.10;19.13;;;;;;;0.97;85.13;99388.38;5015639;28;20045;-76
2021/01/24 10:50:27;;;;;;;44.30;20.80;;;;;;;1.10;84.96;99388.16;5032973;28;20044;-77
2021/01/24 10:52:53;;;;;;;41.88;21.08;;;;;;;1.11;84.76;99378.47;5033289;28;20112;-76
2021/01/24 10:55:18;;;;;;;37.28;19.77;;;;;;;1.05;84.22;99388.56;5032081;28;20894;-76
2021/01/24 10:57:44;;;;;;;39.53;20.30;;;;;;;1.05;84.32;99391.19;5031751;28;20052;-73
2021/01/24 11:00:09;;;;;;;38.60;20.10;;;;;;;0.92;84.53;99389.75;5015515;28;20047;-73
2021/01/24 11:02:35;;;;;;;44.70;20.23;;;;;;;1.01;84.40;99388.97;5032966;28;20102;-74
2021/01/24 11:05:01;;;;;;;34.60;19.02;;;;;;;0.96;84.12;99393.75;5032008;28;20038;-74
2021/01/24 11:07:27;;;;;;;;;;;;;;;1.02;84.34;99390.59;5033084;28;20461;-74
2021/01/24 11:09:52;;;;;;;;;;;;;;;0.97;84.02;99391.00;5032232;28;19913;-74
2021/01/24 11:12:18;;;;;;;37.05;17.73;;;;;;;0.95;83.95;99398.19;5032605;28;20328;-73
2021/01/24 11:14:43;;;;;;;37.42;18.80;;;;;;;0.98;84.30;99402.34;5032758;28;20120;-74
2021/01/24 11:17:09;;;;;;;36.07;18.60;;;;;;;0.93;84.33;99396.66;5032240;28;20037;-73
2021/01/24 11:19:36;;;;;;;44.27;20.50;;;;;;;0.98;84.11;99395.31;5031962;28;20366;-73
2021/01/24 11:22:01;;;;;;;42.83;20.05;;;;;;;1.01;83.76;99391.59;5032483;28;20072;-74
2021/01/24 11:24:27;;;;;;;35.57;17.33;;;;;;;1.05;83.79;99395.59;5031760;28;20077;-74